Observations for Trim Patrick St
| Time | AQI | Temp °C | Hum % | Pres Pa | CO μg/m³ | H₂S μg/m³ | NO μg/m³ | NO₂ μg/m³ | O₃ μg/m³ | SO₂ μg/m³ | PM1 μg/m³ | PM2.5 μg/m³ | PM10 μg/m³ |
|---|---|---|---|---|---|---|---|---|---|---|---|---|---|
| Monday 3 August 2026 | |||||||||||||
| 19:20 | 4 | 22.7 | 50 | 68,939 | 0 | 19.83 | 1.07 | 57.89 | 60.37 | 6.08 | 7.14 | 11.76 | 12.94 |
| 19:18 | 4 | 22.7 | 49 | 68,924 | 0 | 17.74 | 1.07 | 37 | 64.26 | 6.34 | 4.57 | 11.07 | 12.18 |
| 19:13 | 4 | 22.8 | 48 | 68,904 | 0 | 18.48 | 1.03 | 38.64 | 80.9 | 6.41 | 4.57 | 9.62 | 10.58 |
| 19:12 | 4 | 22.9 | 48 | 68,916 | 0 | 17.95 | 1.03 | 35.4 | 71.54 | 6.6 | 4.57 | 10.38 | 11.42 |
| 19:11 | 4 | 22.9 | 49 | 68,904 | 0 | 17.55 | 1.05 | 36.91 | 71.74 | 6.13 | 7.14 | 14.16 | 15.58 |
| 19:10 | 4 | 22.9 | 48 | 68,920 | 0 | 17.87 | 1.03 | 35.04 | 69.1 | 6.99 | 7.14 | 13.43 | 14.77 |
| 19:09 | 4 | 22.9 | 49 | 68,934 | 0 | 17.69 | 1.04 | 35.78 | 76.79 | 6.57 | 6.29 | 12.63 | 13.9 |
| 19:08 | 4 | 22.9 | 48 | 68,930 | 0 | 18.82 | 1.03 | 42.59 | 62.35 | 7.33 | 6.29 | 12.66 | 13.93 |
| 19:07 | 4 | 22.9 | 48 | 68,926 | 0 | 19.22 | 1.04 | 39.01 | 69.34 | 7.07 | 2.86 | 8.86 | 9.75 |
| 19:06 | 4 | 23 | 48 | 68,920 | 0 | 18.98 | 1.03 | 36.14 | 82.62 | 6.66 | 3.71 | 9.62 | 10.59 |
| 19:05 | 4 | 23 | 47 | 68,908 | 0 | 18.19 | 1.02 | 37.79 | 71.1 | 6.41 | 4.57 | 10.43 | 11.47 |
| 19:04 | 4 | 23 | 47 | 68,894 | 0 | 19.01 | 0.99 | 39.01 | 80.44 | 6.89 | 3.71 | 10.45 | 11.5 |
| 19:03 | 4 | 23 | 47 | 68,908 | 0 | 18.48 | 1.03 | 37.8 | 72.51 | 6.26 | 4.57 | 10.44 | 11.48 |
| 19:02 | 4 | 23 | 48 | 68,926 | 0 | 19.32 | 1.01 | 37.37 | 82.82 | 6.5 | 2.86 | 8.88 | 9.76 |
| 19:01 | 4 | 23.1 | 47 | 68,922 | 0 | 19.85 | 1 | 40.94 | 82.83 | 6.58 | 2.86 | 8.92 | 9.81 |
| 19:00 | 4 | 23.1 | 47 | 68,914 | 0 | 19.46 | 0.98 | 39.76 | 74.55 | 6.59 | 2 | 7.39 | 8.12 |
| 18:59 | 4 | 23.1 | 47 | 68,904 | 0 | 19.19 | 1 | 42.58 | 76.17 | 6.9 | 2 | 7.39 | 8.13 |
| 18:58 | 4 | 23.1 | 47 | 68,890 | 0 | 18.08 | 1 | 36.99 | 82.24 | 6.86 | 2.86 | 8.16 | 8.98 |
| 18:57 | 4 | 23.1 | 46 | 68,876 | 0 | 18.32 | 1.01 | 35.84 | 75.68 | 6.94 | 3.71 | 8.96 | 9.86 |
| 18:56 | 4 | 23.1 | 47 | 68,886 | 0 | 18.32 | 1.02 | 32.27 | 86.6 | 6.9 | 3.71 | 8.17 | 8.99 |